createdAt,value
2023-01-26T00:01:44.125Z,88.02
2023-01-26T00:04:12.405Z,87.86
2023-01-26T00:06:40.303Z,87.88
2023-01-26T00:09:13.646Z,87.55
2023-01-26T00:11:41.863Z,87.56
2023-01-26T00:14:09.842Z,87.63
2023-01-26T00:16:38.074Z,87.91
2023-01-26T00:19:06.062Z,88.09
2023-01-26T00:21:34.048Z,87.81
2023-01-26T00:24:02.028Z,87.83
2023-01-26T00:26:30.367Z,87.74
2023-01-26T00:29:00.440Z,87.55
2023-01-26T00:31:28.544Z,87.60
2023-01-26T00:33:57.176Z,87.58
2023-01-26T00:36:25.469Z,87.67
2023-01-26T00:38:53.389Z,87.96
2023-01-26T00:41:39.981Z,87.88
2023-01-26T00:44:07.878Z,87.92
2023-01-26T00:46:36.047Z,88.22
2023-01-26T00:49:03.946Z,88.20
2023-01-26T00:51:34.384Z,88.15
2023-01-26T00:54:02.278Z,87.86
2023-01-26T00:56:30.139Z,87.73
2023-01-26T00:59:00.315Z,87.38
2023-01-26T01:01:28.165Z,87.29
2023-01-26T01:03:56.128Z,87.58
2023-01-26T01:06:23.972Z,87.63
2023-01-26T01:08:51.893Z,87.67
2023-01-26T01:11:19.890Z,87.37
2023-01-26T01:13:47.752Z,87.43
2023-01-26T01:16:16.796Z,87.03
2023-01-26T01:18:44.894Z,86.92
2023-01-26T01:21:17.571Z,87.33
2023-01-26T01:23:45.428Z,87.46
2023-01-26T01:26:14.622Z,87.20
2023-01-26T01:28:43.989Z,87.40
2023-01-26T01:31:15.263Z,87.26
2023-01-26T01:33:43.638Z,86.92
2023-01-26T01:36:14.010Z,86.99
2023-01-26T01:38:43.664Z,87.33
2023-01-26T01:41:12.378Z,87.66
2023-01-26T01:43:40.812Z,87.88
2023-01-26T01:46:17.328Z,88.04
2023-01-26T01:48:53.868Z,87.99
2023-01-26T01:51:42.709Z,88.09
2023-01-26T01:54:17.118Z,87.93
2023-01-26T01:56:52.238Z,87.82
2023-01-26T01:59:21.456Z,87.55
2023-01-26T02:01:53.194Z,87.48
2023-01-26T02:04:24.069Z,87.41
2023-01-26T02:06:55.374Z,87.41
2023-01-26T02:09:49.555Z,87.26
2023-01-26T02:12:20.007Z,87.50
2023-01-26T02:14:52.089Z,87.78
2023-01-26T02:17:20.184Z,87.69
2023-01-26T02:19:49.242Z,87.96
2023-01-26T02:22:33.376Z,88.04
2023-01-26T02:25:07.844Z,87.99
2023-01-26T02:27:36.585Z,87.85
2023-01-26T02:30:06.414Z,87.78
2023-01-26T02:32:34.525Z,87.65
2023-01-26T02:35:02.582Z,87.85
2023-01-26T02:37:30.484Z,87.99
2023-01-26T02:40:11.383Z,88.10
2023-01-26T02:42:41.741Z,87.97
2023-01-26T02:45:13.376Z,87.46
2023-01-26T02:47:42.221Z,87.35
2023-01-26T02:50:10.908Z,87.63
2023-01-26T02:52:39.455Z,88.06
2023-01-26T02:55:28.545Z,87.76
2023-01-26T02:58:02.191Z,87.74
2023-01-26T03:00:37.349Z,87.91
2023-01-26T03:03:23.431Z,87.99
2023-01-26T03:05:52.316Z,87.87
2023-01-26T03:08:20.218Z,87.99
2023-01-26T03:10:48.170Z,87.92
2023-01-26T03:13:16.116Z,88.26
2023-01-26T03:15:52.544Z,88.53
2023-01-26T03:18:42.300Z,88.66
2023-01-26T03:21:32.596Z,88.43
2023-01-26T03:24:20.882Z,88.31
2023-01-26T03:27:08.098Z,88.20
2023-01-26T03:29:36.913Z,88.20
2023-01-26T03:32:05.092Z,88.20
2023-01-26T03:34:34.136Z,88.29
2023-01-26T03:37:02.149Z,88.09
2023-01-26T03:39:55.407Z,88.21
2023-01-26T03:42:42.993Z,88.18
2023-01-26T03:45:29.819Z,88.31
2023-01-26T03:48:26.430Z,88.14
2023-01-26T03:51:13.391Z,88.14
2023-01-26T03:54:00.206Z,88.23
2023-01-26T03:56:32.514Z,88.20
2023-01-26T03:59:09.341Z,88.12
2023-01-26T04:01:42.463Z,88.14
2023-01-26T04:04:30.039Z,88.13
2023-01-26T04:07:16.659Z,88.19
2023-01-26T04:09:49.178Z,88.08
2023-01-26T04:12:17.088Z,88.12
2023-01-26T04:15:21.496Z,88.01
2023-01-26T04:18:08.258Z,87.98
2023-01-26T04:20:54.965Z,88.11
2023-01-26T04:23:23.124Z,88.07
2023-01-26T04:25:52.510Z,87.92
2023-01-26T04:28:20.478Z,88.07
2023-01-26T04:30:49.535Z,88.08
2023-01-26T04:33:17.647Z,88.12
2023-01-26T04:35:45.703Z,87.94
2023-01-26T04:38:13.591Z,87.75
2023-01-26T04:40:43.061Z,87.97
2023-01-26T04:43:11.422Z,87.87
2023-01-26T04:45:39.413Z,87.99
2023-01-26T04:48:08.398Z,88.10
2023-01-26T04:50:36.436Z,88.15
2023-01-26T04:53:05.752Z,88.07
2023-01-26T04:55:33.938Z,87.91
2023-01-26T04:58:03.030Z,87.51
2023-01-26T05:00:32.013Z,87.46
2023-01-26T05:03:02.006Z,87.65
2023-01-26T05:05:31.035Z,88.27
2023-01-26T05:07:58.934Z,88.25
2023-01-26T05:10:29.826Z,88.21
2023-01-26T05:13:16.853Z,88.21
2023-01-26T05:16:06.182Z,88.27
2023-01-26T05:19:00.744Z,88.31
2023-01-26T05:21:49.073Z,88.15
2023-01-26T05:24:16.978Z,88.14
2023-01-26T05:27:18.569Z,88.09
2023-01-26T05:29:49.951Z,87.95
2023-01-26T05:32:18.469Z,87.86
2023-01-26T05:34:46.606Z,87.99
2023-01-26T05:37:15.754Z,88.01
2023-01-26T05:39:45.970Z,87.86
2023-01-26T05:42:14.544Z,87.77
2023-01-26T05:45:02.522Z,87.77
2023-01-26T05:47:30.932Z,87.96
2023-01-26T05:49:58.918Z,87.92
2023-01-26T05:52:29.710Z,87.87
2023-01-26T05:54:58.305Z,87.72
2023-01-26T05:57:26.180Z,87.75
2023-01-26T05:59:58.876Z,87.77
2023-01-26T06:02:30.026Z,87.81
2023-01-26T06:04:58.201Z,87.69
2023-01-26T06:07:27.151Z,87.82
2023-01-26T06:10:13.866Z,87.63
2023-01-26T06:13:03.327Z,87.94
2023-01-26T06:15:41.455Z,87.93
2023-01-26T06:18:09.687Z,88.07
2023-01-26T06:20:37.996Z,87.85
2023-01-26T06:23:11.832Z,87.98
2023-01-26T06:25:40.500Z,87.80
2023-01-26T06:28:08.915Z,87.43
2023-01-26T06:30:38.032Z,86.99
2023-01-26T06:33:09.944Z,87.09
2023-01-26T06:35:38.975Z,87.69
2023-01-26T06:38:11.208Z,87.88
2023-01-26T06:40:39.163Z,88.06
2023-01-26T06:43:07.066Z,87.82
2023-01-26T06:45:35.167Z,87.84
2023-01-26T06:48:03.113Z,87.80
2023-01-26T06:50:33.995Z,88.00
2023-01-26T06:53:04.779Z,88.32
2023-01-26T06:55:51.600Z,88.54
2023-01-26T06:58:37.514Z,88.48
2023-01-26T07:01:27.539Z,88.42
2023-01-26T07:03:55.714Z,87.94
2023-01-26T07:06:23.570Z,87.47
2023-01-26T07:08:51.422Z,87.41
2023-01-26T07:11:20.204Z,87.35
2023-01-26T07:13:48.409Z,87.42
2023-01-26T07:16:17.904Z,87.35
2023-01-26T07:18:45.813Z,87.60
2023-01-26T07:21:18.827Z,88.10
2023-01-26T07:23:47.373Z,88.32
2023-01-26T07:26:15.586Z,88.19
2023-01-26T07:28:43.538Z,88.21
2023-01-26T07:31:12.919Z,88.15
2023-01-26T07:33:41.013Z,87.91
2023-01-26T07:36:11.077Z,88.07
2023-01-26T07:38:39.212Z,88.03
2023-01-26T07:41:10.070Z,88.19
2023-01-26T07:43:38.653Z,88.35
2023-01-26T07:46:10.970Z,88.46
2023-01-26T07:48:41.838Z,88.46
2023-01-26T07:51:11.207Z,88.39
2023-01-26T07:53:39.828Z,87.91
2023-01-26T07:56:14.115Z,88.06
2023-01-26T07:58:42.957Z,88.16
2023-01-26T08:01:13.280Z,88.18
2023-01-26T08:03:41.989Z,88.10
2023-01-26T08:06:12.398Z,88.17
2023-01-26T08:08:42.114Z,87.88
2023-01-26T08:11:11.915Z,87.98
2023-01-26T08:13:40.097Z,87.87
2023-01-26T08:16:12.069Z,87.95
2023-01-26T08:18:42.378Z,87.89
2023-01-26T08:21:11.314Z,87.86
2023-01-26T08:23:39.401Z,87.61
2023-01-26T08:26:10.758Z,87.94
2023-01-26T08:28:39.252Z,87.95
2023-01-26T08:31:25.540Z,88.02
2023-01-26T08:33:55.205Z,88.18
2023-01-26T08:36:23.454Z,88.02
2023-01-26T08:38:52.210Z,87.58
2023-01-26T08:41:20.151Z,87.31
2023-01-26T08:43:48.514Z,87.34
2023-01-26T08:46:16.610Z,87.32
2023-01-26T08:48:44.643Z,87.63
2023-01-26T08:51:12.511Z,87.58
2023-01-26T08:53:40.409Z,87.61
2023-01-26T08:56:11.153Z,87.59
2023-01-26T08:58:39.678Z,87.95
2023-01-26T09:01:11.785Z,88.06
2023-01-26T09:03:40.014Z,88.30
2023-01-26T09:06:10.523Z,87.98
2023-01-26T09:08:38.468Z,88.09
2023-01-26T09:11:07.256Z,88.26
2023-01-26T09:13:37.144Z,88.42
2023-01-26T09:16:13.235Z,88.52
2023-01-26T09:18:41.175Z,88.44
2023-01-26T09:21:09.486Z,88.38
2023-01-26T09:23:38.776Z,88.26
2023-01-26T09:26:06.642Z,87.68
2023-01-26T09:28:34.591Z,87.57
2023-01-26T09:31:11.409Z,88.19
2023-01-26T09:33:39.402Z,88.29
2023-01-26T09:36:09.954Z,88.61
2023-01-26T09:38:38.753Z,88.45
2023-01-26T09:41:35.265Z,88.29
2023-01-26T09:44:10.800Z,87.94
2023-01-26T09:46:59.339Z,88.26
2023-01-26T09:49:42.928Z,88.53
2023-01-26T09:52:14.291Z,88.34
2023-01-26T09:54:49.175Z,87.75
2023-01-26T09:57:22.092Z,87.63
2023-01-26T10:00:09.266Z,87.45
2023-01-26T10:02:43.023Z,87.66
2023-01-26T10:05:35.980Z,87.76
2023-01-26T10:08:12.903Z,87.97
2023-01-26T10:10:48.674Z,88.33
2023-01-26T10:13:18.479Z,88.18
2023-01-26T10:15:52.096Z,88.25
2023-01-26T10:18:22.428Z,88.38
2023-01-26T10:20:54.361Z,88.49
2023-01-26T10:23:28.168Z,88.71
2023-01-26T10:26:11.487Z,88.60
2023-01-26T10:28:41.463Z,88.41
2023-01-26T10:31:21.807Z,88.28
2023-01-26T10:34:03.362Z,88.32
2023-01-26T10:36:32.210Z,88.07
2023-01-26T10:39:08.969Z,88.23
2023-01-26T10:41:37.594Z,88.51
2023-01-26T10:44:34.768Z,88.64
2023-01-26T10:47:17.600Z,88.88
2023-01-26T10:49:45.879Z,88.53
2023-01-26T10:52:27.216Z,88.34
2023-01-26T10:55:24.150Z,88.62
2023-01-26T10:57:52.504Z,88.84
2023-01-26T11:00:26.306Z,88.77
2023-01-26T11:03:04.667Z,88.74
2023-01-26T11:05:32.609Z,88.69
2023-01-26T11:08:02.974Z,88.54
2023-01-26T11:10:36.411Z,88.76
2023-01-26T11:13:20.315Z,88.81
2023-01-26T11:16:00.980Z,88.67
2023-01-26T11:18:42.781Z,88.77
2023-01-26T11:21:20.333Z,88.88
2023-01-26T11:23:52.685Z,88.68
2023-01-26T11:26:39.200Z,88.35
2023-01-26T11:29:25.514Z,88.50
2023-01-26T11:32:15.200Z,88.60
2023-01-26T11:34:54.562Z,88.41
2023-01-26T11:37:47.818Z,88.48
2023-01-26T11:40:23.657Z,88.59
2023-01-26T11:43:18.812Z,88.71
2023-01-26T11:46:05.390Z,88.69
2023-01-26T11:48:55.122Z,88.98
2023-01-26T11:51:45.137Z,89.26
2023-01-26T11:54:51.366Z,89.22
2023-01-26T11:57:31.716Z,89.00
2023-01-26T12:00:29.451Z,88.66
2023-01-26T12:03:05.390Z,88.45
2023-01-26T12:05:54.188Z,88.79
2023-01-26T12:08:27.878Z,88.84
2023-01-26T12:10:55.622Z,88.91
2023-01-26T12:13:43.749Z,89.09
2023-01-26T12:16:18.572Z,89.29
2023-01-26T12:19:09.155Z,89.51
2023-01-26T12:21:43.849Z,89.43
2023-01-26T12:24:48.327Z,89.33
2023-01-26T12:27:23.383Z,89.06
2023-01-26T12:30:16.499Z,88.92
2023-01-26T12:32:44.736Z,89.01
2023-01-26T12:35:14.293Z,89.20
2023-01-26T12:37:53.846Z,89.14
2023-01-26T12:40:27.572Z,88.82
2023-01-26T12:42:58.068Z,88.89
2023-01-26T12:45:32.666Z,88.84
2023-01-26T12:48:22.943Z,88.86
2023-01-26T12:51:05.606Z,88.80
2023-01-26T12:54:03.085Z,88.74
2023-01-26T12:56:43.357Z,88.94
2023-01-26T12:59:47.831Z,88.74
2023-01-26T13:02:16.577Z,88.41
2023-01-26T13:04:48.617Z,88.84
2023-01-26T13:07:39.999Z,88.57
2023-01-26T13:10:17.926Z,88.36
2023-01-26T13:12:59.611Z,88.23
2023-01-26T13:15:31.257Z,88.62
2023-01-26T13:18:01.739Z,88.52
2023-01-26T13:20:43.310Z,88.62
2023-01-26T13:23:42.155Z,89.01
2023-01-26T13:26:33.283Z,88.74
2023-01-26T13:29:51.837Z,88.63
2023-01-26T13:32:19.634Z,88.32
2023-01-26T13:34:59.849Z,88.23
2023-01-26T13:37:49.597Z,88.67
2023-01-26T13:40:33.424Z,88.62
2023-01-26T13:43:26.844Z,88.78
2023-01-26T13:46:17.737Z,88.71
2023-01-26T13:48:50.421Z,88.90
2023-01-26T13:51:27.041Z,88.78
2023-01-26T13:54:12.764Z,88.81
2023-01-26T13:56:43.299Z,88.72
2023-01-26T13:59:19.988Z,88.79
2023-01-26T14:01:50.687Z,88.81
2023-01-26T14:04:29.927Z,88.82
2023-01-26T14:07:06.892Z,89.03
2023-01-26T14:09:46.412Z,89.12
2023-01-26T14:12:22.856Z,88.96
2023-01-26T14:15:03.462Z,88.74
2023-01-26T14:17:34.101Z,89.03
2023-01-26T14:20:17.069Z,89.15
2023-01-26T14:22:44.986Z,89.40
2023-01-26T14:25:13.065Z,89.18
2023-01-26T14:27:42.399Z,89.29
2023-01-26T14:30:31.917Z,89.48
2023-01-26T14:33:13.623Z,89.35
2023-01-26T14:35:54.333Z,89.63
2023-01-26T14:38:22.222Z,89.45
2023-01-26T14:40:55.689Z,89.66
2023-01-26T14:43:24.302Z,89.46
2023-01-26T14:46:09.635Z,89.23
2023-01-26T14:48:50.878Z,89.63
2023-01-26T14:51:23.349Z,89.40
2023-01-26T14:53:55.574Z,89.05
2023-01-26T14:56:37.967Z,89.23
2023-01-26T14:59:08.358Z,89.16
2023-01-26T15:01:36.399Z,89.76
2023-01-26T15:04:26.247Z,89.64
2023-01-26T15:06:54.202Z,89.19
2023-01-26T15:09:31.747Z,89.03
2023-01-26T15:12:18.896Z,89.22
2023-01-26T15:14:48.737Z,89.17
2023-01-26T15:17:41.839Z,89.51
2023-01-26T15:20:15.536Z,89.70
2023-01-26T15:22:50.763Z,89.70
2023-01-26T15:25:21.415Z,89.69
2023-01-26T15:27:53.503Z,89.98
2023-01-26T15:30:31.750Z,90.11
2023-01-26T15:33:00.505Z,89.75
2023-01-26T15:35:34.070Z,89.59
2023-01-26T15:38:03.978Z,89.44
2023-01-26T15:40:32.468Z,89.47
2023-01-26T15:43:18.257Z,89.39
2023-01-26T15:45:55.320Z,89.42
2023-01-26T15:48:24.869Z,89.41
2023-01-26T15:50:53.136Z,89.43
2023-01-26T15:53:22.528Z,89.48
2023-01-26T15:55:56.230Z,89.68
2023-01-26T15:58:25.888Z,89.75
2023-01-26T16:00:53.990Z,89.74
2023-01-26T16:03:22.726Z,89.58
2023-01-26T16:05:50.662Z,89.50
2023-01-26T16:08:19.574Z,89.53
2023-01-26T16:10:47.748Z,89.76
2023-01-26T16:13:18.344Z,89.80
2023-01-26T16:15:51.408Z,89.83
2023-01-26T16:18:20.303Z,89.92
2023-01-26T16:20:49.612Z,90.16
2023-01-26T16:23:19.463Z,90.03
2023-01-26T16:25:48.335Z,89.87
2023-01-26T16:28:17.227Z,89.91
2023-01-26T16:30:46.971Z,89.96
2023-01-26T16:33:17.908Z,89.71
2023-01-26T16:35:45.800Z,89.82
2023-01-26T16:38:13.849Z,89.85
2023-01-26T16:40:44.843Z,89.90
2023-01-26T16:43:23.787Z,90.03
2023-01-26T16:45:53.049Z,89.98
2023-01-26T16:48:22.651Z,90.26
2023-01-26T16:50:53.135Z,90.37
2023-01-26T16:53:29.244Z,90.37
2023-01-26T16:55:57.428Z,90.45
2023-01-26T16:58:30.551Z,90.61
2023-01-26T17:00:58.569Z,90.28
2023-01-26T17:03:26.629Z,90.20
2023-01-26T17:05:56.323Z,90.50
2023-01-26T17:08:24.262Z,90.47
2023-01-26T17:11:02.083Z,90.42
2023-01-26T17:13:31.641Z,90.36
2023-01-26T17:15:59.701Z,90.37
2023-01-26T17:18:27.582Z,90.51
2023-01-26T17:21:02.658Z,90.60
2023-01-26T17:23:31.511Z,90.60
2023-01-26T17:26:00.555Z,90.81
2023-01-26T17:28:28.583Z,90.84
2023-01-26T17:30:57.337Z,90.81
2023-01-26T17:33:26.403Z,90.55
2023-01-26T17:36:06.635Z,90.35
2023-01-26T17:38:35.032Z,90.45
2023-01-26T17:41:03.870Z,90.36
2023-01-26T17:43:32.376Z,90.54
2023-01-26T17:46:15.095Z,90.71
2023-01-26T17:48:45.279Z,90.77
2023-01-26T17:51:16.786Z,90.93
2023-01-26T17:53:46.920Z,90.92
2023-01-26T17:56:17.476Z,91.06
2023-01-26T17:58:53.822Z,90.82
2023-01-26T18:01:23.418Z,90.77
2023-01-26T18:03:53.668Z,91.02
2023-01-26T18:06:22.070Z,91.07
2023-01-26T18:08:50.277Z,90.84
2023-01-26T18:11:18.215Z,90.71
2023-01-26T18:13:46.886Z,90.88
2023-01-26T18:16:18.053Z,90.96
2023-01-26T18:18:46.860Z,91.24
2023-01-26T18:21:20.606Z,90.99
2023-01-26T18:23:54.103Z,90.78
2023-01-26T18:26:24.446Z,90.85
2023-01-26T18:28:52.902Z,90.81
2023-01-26T18:31:36.086Z,91.02
2023-01-26T18:34:04.755Z,91.10
2023-01-26T18:36:32.862Z,90.98
2023-01-26T18:39:03.773Z,92.08
2023-01-26T18:41:33.173Z,92.86
2023-01-26T18:44:03.036Z,91.66
2023-01-26T18:46:31.376Z,91.50
2023-01-26T18:49:01.051Z,91.44
2023-01-26T18:51:35.227Z,91.60
2023-01-26T18:54:05.839Z,91.42
2023-01-26T18:56:33.840Z,91.66
2023-01-26T18:59:02.005Z,91.77
2023-01-26T19:01:29.954Z,91.69
2023-01-26T19:03:58.967Z,91.43
2023-01-26T19:06:28.904Z,91.48
2023-01-26T19:09:00.923Z,91.49
2023-01-26T19:11:31.861Z,91.69
2023-01-26T19:14:01.138Z,92.00
2023-01-26T19:16:30.133Z,91.95
2023-01-26T19:18:58.421Z,91.84
2023-01-26T19:21:27.662Z,91.88
2023-01-26T19:23:58.699Z,91.72
2023-01-26T19:26:29.744Z,91.79
2023-01-26T19:28:58.712Z,91.73
2023-01-26T19:31:27.400Z,92.04
2023-01-26T19:33:58.293Z,91.99
2023-01-26T19:36:28.001Z,91.99
2023-01-26T19:38:56.212Z,92.07
2023-01-26T19:41:24.854Z,92.04
2023-01-26T19:43:53.526Z,91.95
2023-01-26T19:46:21.860Z,91.87
2023-01-26T19:48:50.377Z,91.88
2023-01-26T19:51:23.865Z,91.84
2023-01-26T19:53:55.745Z,91.92
2023-01-26T19:56:26.759Z,92.15
2023-01-26T19:58:57.170Z,92.18
2023-01-26T20:01:26.821Z,92.21
2023-01-26T20:03:58.932Z,92.15
2023-01-26T20:06:29.713Z,92.28
2023-01-26T20:08:58.621Z,92.47
2023-01-26T20:11:29.068Z,92.31
2023-01-26T20:14:02.181Z,92.24
2023-01-26T20:16:30.875Z,92.43
2023-01-26T20:18:59.657Z,92.37
2023-01-26T20:21:28.546Z,92.58
2023-01-26T20:23:56.701Z,92.55
2023-01-26T20:26:26.371Z,92.47
2023-01-26T20:28:58.012Z,92.46
2023-01-26T20:31:26.856Z,92.33
2023-01-26T20:33:55.343Z,92.28
2023-01-26T20:36:27.184Z,92.41
2023-01-26T20:38:55.573Z,92.32
2023-01-26T20:41:27.256Z,92.53
2023-01-26T20:44:00.232Z,92.73
2023-01-26T20:46:32.268Z,92.59
2023-01-26T20:49:00.862Z,92.46
2023-01-26T20:51:33.876Z,92.55
2023-01-26T20:54:04.209Z,92.49
2023-01-26T20:56:32.540Z,92.64
2023-01-26T20:59:00.707Z,92.69
2023-01-26T21:01:28.762Z,92.55
2023-01-26T21:03:56.748Z,92.84
2023-01-26T21:06:26.137Z,92.69
2023-01-26T21:08:57.113Z,92.61
2023-01-26T21:11:27.479Z,92.65
2023-01-26T21:13:56.924Z,92.90
2023-01-26T21:16:25.214Z,92.86
2023-01-26T21:18:53.968Z,92.88
2023-01-26T21:21:22.359Z,92.88
2023-01-26T21:23:50.812Z,92.73
2023-01-26T21:26:24.178Z,92.72
2023-01-26T21:28:57.427Z,92.58
2023-01-26T21:31:28.140Z,92.67
2023-01-26T21:33:56.681Z,92.98
2023-01-26T21:36:27.374Z,92.75
2023-01-26T21:38:57.552Z,92.61
2023-01-26T21:41:49.626Z,92.52
2023-01-26T21:44:21.398Z,92.70
2023-01-26T21:46:51.957Z,92.92
2023-01-26T21:49:20.864Z,93.00
2023-01-26T21:52:08.192Z,92.85
2023-01-26T21:54:36.349Z,92.86
2023-01-26T21:57:25.915Z,92.83
2023-01-26T21:59:54.157Z,92.59
2023-01-26T22:02:22.815Z,92.49
2023-01-26T22:04:51.121Z,92.61
2023-01-26T22:07:18.955Z,92.45
2023-01-26T22:09:46.993Z,92.52
2023-01-26T22:12:14.901Z,92.61
2023-01-26T22:14:42.756Z,92.49
2023-01-26T22:17:10.641Z,92.59
2023-01-26T22:19:38.605Z,92.62
2023-01-26T22:22:06.517Z,92.78
2023-01-26T22:24:34.522Z,93.01
2023-01-26T22:27:02.474Z,92.85
2023-01-26T22:29:30.365Z,92.82
2023-01-26T22:31:58.427Z,92.84
2023-01-26T22:34:26.587Z,93.03
2023-01-26T22:36:54.449Z,92.88
2023-01-26T22:39:22.311Z,93.11
2023-01-26T22:41:50.206Z,93.41
2023-01-26T22:44:18.163Z,93.45
2023-01-26T22:46:46.023Z,93.20
2023-01-26T22:49:13.975Z,93.22
2023-01-26T22:51:41.962Z,93.31
2023-01-26T22:54:10.447Z,93.55
2023-01-26T22:56:38.301Z,93.57
2023-01-26T22:59:06.231Z,93.46
2023-01-26T23:01:34.184Z,93.51
2023-01-26T23:04:02.172Z,93.64
2023-01-26T23:06:30.375Z,93.48
2023-01-26T23:09:01.094Z,93.67
2023-01-26T23:11:29.719Z,93.71
2023-01-26T23:13:59.417Z,93.66
2023-01-26T23:16:27.880Z,93.85
2023-01-26T23:18:57.848Z,93.92
2023-01-26T23:21:27.580Z,93.96
2023-01-26T23:23:56.085Z,93.82
2023-01-26T23:26:24.132Z,93.80
2023-01-26T23:28:52.098Z,93.78
2023-01-26T23:31:20.189Z,93.74
2023-01-26T23:33:48.524Z,94.05
2023-01-26T23:36:16.457Z,94.20
2023-01-26T23:38:45.834Z,94.34
2023-01-26T23:41:14.222Z,94.24
2023-01-26T23:43:42.152Z,94.10
2023-01-26T23:46:11.886Z,94.15
2023-01-26T23:48:39.846Z,94.07
2023-01-26T23:51:10.350Z,94.11
2023-01-26T23:53:38.526Z,94.05
2023-01-26T23:56:09.578Z,94.24
2023-01-26T23:58:37.816Z,94.09
